Time;durP1;ratioP1;P1;durP2;ratioP2;P2;SDS_P1;SDS_P2;PMS_P1;PMS_P2;Temp;Humidity;BMP_temperature;BMP_pressure;BME280_temperature;BME280_humidity;BME280_pressure;Samples;Min_cycle;Max_cycle;Signal;HPM_P1;HPM_P2
2023/06/10 00:00:25;;;;;;;12.70;6.65;;;;;;;;;;5032121;28;20022;-76
2023/06/10 00:02:51;;;;;;;14.93;6.85;;;;;;;;;;5033280;28;20060;-75
2023/06/10 00:05:21;;;;;;;11.90;6.65;;;;;;;;;;5035997;28;20057;-76
2023/06/10 00:07:48;;;;;;;13.65;6.68;;;;;;;;;;5036395;28;20449;-75
2023/06/10 00:10:14;;;;;;;13.43;6.95;;;;;;;;;;5036143;28;20515;-75
2023/06/10 00:12:40;;;;;;;11.20;5.82;;;;;;;;;;5035834;28;20053;-75
2023/06/10 00:15:06;;;;;;;13.40;7.00;;;;;;;;;;5036094;28;20029;-75
2023/06/10 00:17:32;;;;;;;9.65;6.20;;;;;;;;;;5035915;28;20029;-75
2023/06/10 00:19:58;;;;;;;13.80;6.72;;;;;;;;;;5035809;28;20029;-76
2023/06/10 00:22:29;;;;;;;9.85;6.13;;;;;;;;;;5035876;28;20448;-75
2023/06/10 00:24:56;;;;;;;12.65;6.97;;;;;;;;;;5035947;28;20063;-76
2023/06/10 00:27:22;;;;;;;12.85;6.78;;;;;;;;;;5035856;28;20459;-75
2023/06/10 00:29:48;;;;;;;14.52;6.40;;;;;;;;;;5035062;28;20084;-75
2023/06/10 00:32:14;;;;;;;10.38;5.68;;;;;;;;;;5035921;28;20018;-75
2023/06/10 00:34:40;;;;;;;10.52;6.13;;;;;;;;;;5035489;28;20104;-75
2023/06/10 00:37:07;;;;;;;10.95;6.55;;;;;;;;;;5035443;28;20483;-75
2023/06/10 00:39:33;;;;;;;12.73;6.95;;;;;;;;;;5035999;28;20029;-75
2023/06/10 00:41:59;;;;;;;10.30;6.22;;;;;;;;;;5035343;28;20191;-75
2023/06/10 00:44:25;;;;;;;11.43;7.32;;;;;;;;;;5035377;28;20029;-75
2023/06/10 00:46:52;;;;;;;13.95;7.07;;;;;;;;;;5035296;28;20025;-75
2023/06/10 00:49:19;;;;;;;10.98;6.10;;;;;;;;;;5035465;28;20030;-75
2023/06/10 00:51:45;;;;;;;12.13;7.28;;;;;;;;;;5035233;28;20030;-75
2023/06/10 00:54:13;;;;;;;11.82;6.70;;;;;;;;;;5035069;28;20033;-75
2023/06/10 00:56:39;;;;;;;12.93;6.82;;;;;;;;;;5035102;28;20021;-75
2023/06/10 00:59:05;;;;;;;16.83;7.15;;;;;;;;;;5035217;28;20491;-75
2023/06/10 01:01:32;;;;;;;13.02;6.68;;;;;;;;;;5034954;28;20026;-75
2023/06/10 01:03:58;;;;;;;11.93;6.70;;;;;;;;;;5035164;28;20025;-75
2023/06/10 01:06:29;;;;;;;11.52;6.15;;;;;;;;;;5035334;28;20032;-75
2023/06/10 01:08:58;;;;;;;11.50;7.22;;;;;;;;;;5035303;28;20508;-75
2023/06/10 01:11:29;;;;;;;11.18;6.68;;;;;;;;;;5035151;28;20028;-75
2023/06/10 01:13:56;;;;;;;11.68;5.95;;;;;;;;;;5034536;28;20483;-75
2023/06/10 01:16:22;;;;;;;11.50;6.97;;;;;;;;;;5034171;28;20107;-75
2023/06/10 01:18:48;;;;;;;12.70;6.63;;;;;;;;;;5034750;28;20025;-75
2023/06/10 01:21:24;;;;;;;12.75;6.97;;;;;;;;;;5034801;28;20510;-76
2023/06/10 01:23:50;;;;;;;16.15;7.40;;;;;;;;;;5035076;28;20028;-75
2023/06/10 01:26:16;;;;;;;10.40;6.20;;;;;;;;;;5034559;28;20018;-75
2023/06/10 01:28:46;;;;;;;12.25;6.75;;;;;;;;;;5033009;28;20726;-75
2023/06/10 01:31:24;;;;;;;17.00;6.95;;;;;;;;;;5034885;28;20025;-75
2023/06/10 01:33:52;;;;;;;12.10;6.70;;;;;;;;;;5034388;28;20021;-75
2023/06/10 01:36:18;;;;;;;12.48;6.47;;;;;;;;;;5034344;28;20053;-75
2023/06/10 01:38:45;;;;;;;11.73;7.10;;;;;;;;;;5034284;28;20480;-75
2023/06/10 01:41:13;;;;;;;11.73;7.00;;;;;;;;;;5034209;28;20048;-75
2023/06/10 01:43:39;;;;;;;12.40;6.00;;;;;;;;;;5034186;28;20402;-75
2023/06/10 01:46:05;;;;;;;10.68;6.30;;;;;;;;;;5034181;28;20021;-75
2023/06/10 01:48:32;;;;;;;11.30;6.57;;;;;;;;;;5034003;28;20463;-75
2023/06/10 01:50:58;;;;;;;14.05;6.70;;;;;;;;;;5034088;28;20034;-75
2023/06/10 01:53:24;;;;;;;11.98;7.50;;;;;;;;;;5034636;28;20025;-75
2023/06/10 01:55:50;;;;;;;11.57;6.30;;;;;;;;;;5033864;28;20027;-75
2023/06/10 01:58:16;;;;;;;13.07;6.90;;;;;;;;;;5033909;28;20056;-75
2023/06/10 02:00:42;;;;;;;12.38;6.47;;;;;;;;;;5034165;28;20635;-75
2023/06/10 02:03:08;;;;;;;11.32;6.47;;;;;;;;;;5033923;28;20480;-75
2023/06/10 02:05:34;;;;;;;13.00;6.53;;;;;;;;;;5033804;28;20052;-75
2023/06/10 02:08:01;;;;;;;16.40;7.40;;;;;;;;;;5033727;28;20033;-75
2023/06/10 02:10:27;;;;;;;13.45;7.43;;;;;;;;;;5033944;28;20053;-75
2023/06/10 02:12:53;;;;;;;12.32;6.80;;;;;;;;;;5033693;28;20068;-75
2023/06/10 02:15:19;;;;;;;11.38;7.00;;;;;;;;;;5033753;28;20053;-75
2023/06/10 02:17:45;;;;;;;11.52;6.78;;;;;;;;;;5033605;28;20071;-75
2023/06/10 02:20:11;;;;;;;12.93;6.55;;;;;;;;;;5048874;28;20074;-75
2023/06/10 02:22:38;;;;;;;12.40;6.93;;;;;;;;;;5033550;28;20104;-75
2023/06/10 02:25:04;;;;;;;11.68;6.88;;;;;;;;;;5033351;28;20688;-75
2023/06/10 02:27:31;;;;;;;11.13;6.13;;;;;;;;;;5033228;28;20048;-76
2023/06/10 02:29:58;;;;;;;13.35;7.15;;;;;;;;;;5032026;28;20050;-75
2023/06/10 02:32:25;;;;;;;11.20;6.63;;;;;;;;;;5033290;28;20033;-75
2023/06/10 02:34:51;;;;;;;9.32;6.63;;;;;;;;;;5033231;28;20432;-75
2023/06/10 02:37:17;;;;;;;10.15;6.68;;;;;;;;;;5033253;28;20508;-75
2023/06/10 02:39:43;;;;;;;11.10;6.55;;;;;;;;;;5033157;28;20022;-75
2023/06/10 02:42:10;;;;;;;11.65;7.07;;;;;;;;;;5033105;28;20456;-75
2023/06/10 02:44:36;;;;;;;10.88;6.28;;;;;;;;;;5033497;28;20114;-76
2023/06/10 02:47:02;;;;;;;11.38;7.28;;;;;;;;;;5033051;28;20072;-75
2023/06/10 02:49:28;;;;;;;11.65;6.70;;;;;;;;;;5032742;28;20365;-75
2023/06/10 02:51:54;;;;;;;11.18;6.85;;;;;;;;;;5033122;28;20291;-75
2023/06/10 02:54:21;;;;;;;12.48;7.38;;;;;;;;;;5033143;28;20036;-75
2023/06/10 02:56:47;;;;;;;13.23;7.50;;;;;;;;;;5032718;28;20022;-75
2023/06/10 02:59:14;;;;;;;13.07;7.53;;;;;;;;;;5033097;28;20116;-75
2023/06/10 03:01:40;;;;;;;10.30;6.97;;;;;;;;;;5032763;28;20026;-75
2023/06/10 03:04:06;;;;;;;12.68;6.57;;;;;;;;;;5032787;28;20013;-75
2023/06/10 03:06:35;;;;;;;14.43;7.22;;;;;;;;;;5032632;28;20025;-75
2023/06/10 03:09:04;;;;;;;12.65;8.02;;;;;;;;;;5032349;28;20031;-75
2023/06/10 03:11:30;;;;;;;11.95;7.50;;;;;;;;;;5032932;28;20018;-76
2023/06/10 03:13:57;;;;;;;12.77;7.35;;;;;;;;;;5032759;28;20112;-75
2023/06/10 03:16:25;;;;;;;13.82;7.13;;;;;;;;;;5032474;28;20033;-75
2023/06/10 03:18:51;;;;;;;11.98;7.05;;;;;;;;;;5032998;28;20099;-76
2023/06/10 03:21:17;;;;;;;13.57;6.72;;;;;;;;;;5032864;28;20074;-76
2023/06/10 03:23:43;;;;;;;10.80;7.20;;;;;;;;;;5032681;28;20026;-75
2023/06/10 03:26:10;;;;;;;10.98;6.25;;;;;;;;;;5032780;28;20034;-76
2023/06/10 03:28:36;;;;;;;11.90;6.60;;;;;;;;;;5032810;28;20041;-75
2023/06/10 03:31:02;;;;;;;11.40;6.78;;;;;;;;;;5032135;28;20053;-75
2023/06/10 03:33:28;;;;;;;9.98;6.18;;;;;;;;;;5032547;28;20028;-75
2023/06/10 03:35:54;;;;;;;11.45;6.82;;;;;;;;;;5032637;28;20376;-75
2023/06/10 03:38:20;;;;;;;11.82;6.68;;;;;;;;;;5034285;28;20090;-76
2023/06/10 03:40:46;;;;;;;12.75;6.72;;;;;;;;;;5037013;28;20112;-75
2023/06/10 03:43:12;;;;;;;12.27;6.75;;;;;;;;;;5036530;28;20575;-75
2023/06/10 03:45:38;;;;;;;11.65;6.32;;;;;;;;;;5036438;28;20017;-75
2023/06/10 03:48:04;;;;;;;8.95;6.05;;;;;;;;;;5036310;28;20060;-75
2023/06/10 03:50:30;;;;;;;14.45;6.95;;;;;;;;;;5036596;28;20032;-75
2023/06/10 03:52:56;;;;;;;9.48;6.30;;;;;;;;;;5036261;28;20030;-75
2023/06/10 03:55:23;;;;;;;10.18;6.45;;;;;;;;;;5036311;28;20053;-75
2023/06/10 03:57:49;;;;;;;15.38;7.22;;;;;;;;;;5036701;28;20048;-75
2023/06/10 04:00:17;;;;;;;11.52;6.75;;;;;;;;;;5036189;28;20033;-75
2023/06/10 04:02:45;;;;;;;12.57;6.45;;;;;;;;;;5034903;28;20365;-75
2023/06/10 04:05:17;;;;;;;12.73;6.47;;;;;;;;;;5036185;28;20021;-76
2023/06/10 04:07:44;;;;;;;12.02;6.30;;;;;;;;;;5028240;28;20052;-76
2023/06/10 04:10:10;;;;;;;12.52;6.18;;;;;;;;;;5032994;28;20034;-76
2023/06/10 04:12:36;;;;;;;9.13;5.50;;;;;;;;;;5035849;28;20025;-76
2023/06/10 04:15:03;;;;;;;10.65;6.22;;;;;;;;;;5035855;28;20044;-76
2023/06/10 04:17:29;;;;;;;9.15;6.18;;;;;;;;;;5035609;28;20048;-76
2023/06/10 04:19:55;;;;;;;11.75;5.93;;;;;;;;;;5034434;28;20029;-76
2023/06/10 04:22:22;;;;;;;13.80;6.53;;;;;;;;;;5036105;28;20441;-75
2023/06/10 04:24:48;;;;;;;11.07;5.68;;;;;;;;;;5035997;28;20032;-76
2023/06/10 04:27:14;;;;;;;9.18;5.80;;;;;;;;;;5035926;28;20033;-76
2023/06/10 04:29:40;;;;;;;8.70;5.75;;;;;;;;;;5034438;28;20140;-76
2023/06/10 04:32:07;;;;;;;9.40;5.50;;;;;;;;;;5035883;28;20036;-76
2023/06/10 04:34:34;;;;;;;8.27;5.15;;;;;;;;;;5035620;28;20225;-76
2023/06/10 04:37:00;;;;;;;8.68;5.47;;;;;;;;;;5035855;28;20026;-76
2023/06/10 04:39:26;;;;;;;10.02;5.32;;;;;;;;;;5034051;28;20392;-76
2023/06/10 04:41:52;;;;;;;9.50;5.30;;;;;;;;;;5035649;28;20109;-76
2023/06/10 04:44:18;;;;;;;8.18;5.22;;;;;;;;;;5035692;28;20029;-76
2023/06/10 04:46:45;;;;;;;6.93;5.40;;;;;;;;;;5035584;28;20029;-76
2023/06/10 04:49:14;;;;;;;7.85;4.90;;;;;;;;;;5034276;28;20017;-76
2023/06/10 04:51:40;;;;;;;8.18;5.07;;;;;;;;;;5035450;28;20022;-76
2023/06/10 04:54:06;;;;;;;7.45;5.15;;;;;;;;;;5034806;28;20020;-75
2023/06/10 04:56:32;;;;;;;8.15;5.38;;;;;;;;;;5035043;28;20025;-76
2023/06/10 04:58:58;;;;;;;9.93;5.28;;;;;;;;;;5034835;28;20029;-76
2023/06/10 05:01:24;;;;;;;9.57;5.40;;;;;;;;;;5035177;28;20025;-76
2023/06/10 05:03:50;;;;;;;10.55;5.10;;;;;;;;;;5035007;28;20022;-76
2023/06/10 05:06:16;;;;;;;8.07;5.40;;;;;;;;;;5035186;28;20079;-76
2023/06/10 05:08:42;;;;;;;8.45;5.38;;;;;;;;;;5034925;28;20037;-76
2023/06/10 05:11:08;;;;;;;6.38;4.47;;;;;;;;;;5035045;28;20049;-76
2023/06/10 05:13:34;;;;;;;10.23;4.78;;;;;;;;;;5035108;28;20060;-76
2023/06/10 05:16:01;;;;;;;8.38;4.72;;;;;;;;;;5034869;28;20032;-76
2023/06/10 05:18:27;;;;;;;8.90;4.55;;;;;;;;;;5034741;28;20033;-76
2023/06/10 05:20:55;;;;;;;7.75;4.40;;;;;;;;;;5035268;28;20171;-76
2023/06/10 05:23:21;;;;;;;8.02;5.00;;;;;;;;;;5035385;28;20025;-76
2023/06/10 05:25:47;;;;;;;9.07;4.80;;;;;;;;;;5035649;28;20373;-76
2023/06/10 05:28:14;;;;;;;7.38;5.20;;;;;;;;;;5035306;28;20037;-76
2023/06/10 05:30:40;;;;;;;5.55;4.45;;;;;;;;;;5033903;28;20549;-76
2023/06/10 05:33:12;;;;;;;8.23;4.60;;;;;;;;;;5015692;28;20030;-76
2023/06/10 05:35:38;;;;;;;7.85;5.03;;;;;;;;;;5015533;28;20033;-77
2023/06/10 05:38:04;;;;;;;8.15;5.13;;;;;;;;;;5016262;28;20038;-77
2023/06/10 05:40:30;;;;;;;8.45;4.63;;;;;;;;;;5016306;28;20123;-77
2023/06/10 05:42:56;;;;;;;7.32;4.70;;;;;;;;;;5027372;28;20057;-77
2023/06/10 05:45:22;;;;;;;8.70;4.75;;;;;;;;;;5036239;28;20371;-77
2023/06/10 05:47:48;;;;;;;8.70;5.32;;;;;;;;;;5036281;28;20045;-77
2023/06/10 05:50:14;;;;;;;8.63;5.25;;;;;;;;;;5030944;28;20026;-77
2023/06/10 05:52:40;;;;;;;7.53;4.38;;;;;;;;;;5036184;28;20028;-76
2023/06/10 05:55:07;;;;;;;7.68;4.80;;;;;;;;;;5032007;28;20117;-77
2023/06/10 05:57:33;;;;;;;11.15;4.93;;;;;;;;;;5016283;28;20098;-76
2023/06/10 05:59:59;;;;;;;6.95;4.40;;;;;;;;;;5015257;28;20033;-76
2023/06/10 06:02:25;;;;;;;6.88;4.30;;;;;;;;;;5014571;28;20026;-76
2023/06/10 06:04:51;;;;;;;8.85;4.70;;;;;;;;;;5013784;28;20037;-76
2023/06/10 06:07:20;;;;;;;6.22;4.07;;;;;;;;;;5013438;28;20029;-76
2023/06/10 06:09:46;;;;;;;7.95;4.45;;;;;;;;;;5013362;28;20038;-77
2023/06/10 06:12:12;;;;;;;7.40;4.43;;;;;;;;;;5014501;28;20021;-76
2023/06/10 06:14:41;;;;;;;7.88;4.53;;;;;;;;;;5014210;28;20022;-76
2023/06/10 06:17:08;;;;;;;10.32;4.65;;;;;;;;;;5016308;28;20044;-77
2023/06/10 06:19:34;;;;;;;8.73;4.78;;;;;;;;;;5015987;28;20054;-76
2023/06/10 06:22:00;;;;;;;7.97;4.57;;;;;;;;;;5015713;28;20078;-76
2023/06/10 06:24:26;;;;;;;7.82;4.75;;;;;;;;;;5032070;28;20036;-77
2023/06/10 06:26:52;;;;;;;7.50;5.10;;;;;;;;;;5035920;28;20109;-77
2023/06/10 06:29:18;;;;;;;6.28;4.20;;;;;;;;;;5015608;28;20077;-76
2023/06/10 06:31:44;;;;;;;7.07;4.97;;;;;;;;;;5031181;28;20033;-76
2023/06/10 06:34:10;;;;;;;6.70;4.30;;;;;;;;;;5033066;28;20068;-77
2023/06/10 06:36:36;;;;;;;8.60;4.57;;;;;;;;;;5034431;28;20025;-77
2023/06/10 06:39:08;;;;;;;6.82;4.90;;;;;;;;;;5035433;28;20041;-77
2023/06/10 06:41:34;;;;;;;8.05;4.45;;;;;;;;;;5035183;28;20049;-77
2023/06/10 06:44:07;;;;;;;8.50;4.80;;;;;;;;;;5032203;28;20022;-77
2023/06/10 06:46:33;;;;;;;7.13;4.65;;;;;;;;;;5032945;28;20052;-77
2023/06/10 06:48:59;;;;;;;6.28;4.40;;;;;;;;;;5033511;28;20080;-77
2023/06/10 06:51:25;;;;;;;6.15;4.20;;;;;;;;;;5034131;28;20418;-77
2023/06/10 06:53:54;;;;;;;8.38;4.70;;;;;;;;;;5032429;28;20021;-77
2023/06/10 06:56:21;;;;;;;7.47;4.68;;;;;;;;;;5033186;28;20520;-77
2023/06/10 06:58:47;;;;;;;6.40;3.90;;;;;;;;;;5034830;28;20022;-75
2023/06/10 07:01:13;;;;;;;5.97;4.43;;;;;;;;;;5032985;28;20032;-75
2023/06/10 07:03:39;;;;;;;7.05;4.32;;;;;;;;;;5036197;28;20615;-75
2023/06/10 07:06:05;;;;;;;6.57;4.07;;;;;;;;;;5035481;28;20025;-75
2023/06/10 07:08:31;;;;;;;7.07;4.35;;;;;;;;;;5035213;28;20055;-75
2023/06/10 07:10:57;;;;;;;5.90;4.22;;;;;;;;;;5036077;28;20412;-75
2023/06/10 07:13:23;;;;;;;7.93;4.47;;;;;;;;;;5034521;28;20030;-75
2023/06/10 07:15:49;;;;;;;7.65;4.20;;;;;;;;;;5034401;28;20093;-75
2023/06/10 07:18:18;;;;;;;6.90;4.20;;;;;;;;;;5034031;28;20388;-75
2023/06/10 07:20:44;;;;;;;7.00;4.28;;;;;;;;;;5035556;28;20029;-75
2023/06/10 07:23:11;;;;;;;6.10;3.75;;;;;;;;;;5033545;28;20039;-75
2023/06/10 07:25:37;;;;;;;6.65;3.80;;;;;;;;;;5035087;28;20033;-75
2023/06/10 07:28:03;;;;;;;5.68;4.22;;;;;;;;;;5034986;28;20041;-75
2023/06/10 07:30:29;;;;;;;7.05;4.32;;;;;;;;;;5033343;28;20057;-75
2023/06/10 07:32:55;;;;;;;5.50;4.20;;;;;;;;;;5034809;28;20360;-75
2023/06/10 07:35:21;;;;;;;5.50;4.07;;;;;;;;;;5034987;28;20025;-75
2023/06/10 07:37:47;;;;;;;6.15;4.35;;;;;;;;;;5034354;28;20121;-75
2023/06/10 07:40:13;;;;;;;6.40;4.78;;;;;;;;;;5033471;28;20057;-75
2023/06/10 07:42:39;;;;;;;7.85;4.63;;;;;;;;;;5034036;28;20025;-75
2023/06/10 07:45:05;;;;;;;7.47;4.50;;;;;;;;;;5034026;28;20072;-75
2023/06/10 07:47:33;;;;;;;8.27;4.60;;;;;;;;;;5034175;28;20046;-75
2023/06/10 07:49:59;;;;;;;8.35;4.82;;;;;;;;;;5035272;28;20396;-75
2023/06/10 07:52:25;;;;;;;7.05;4.50;;;;;;;;;;5033240;28;20105;-75
2023/06/10 07:54:51;;;;;;;7.88;4.57;;;;;;;;;;5035077;28;20029;-75
2023/06/10 07:57:18;;;;;;;7.15;4.68;;;;;;;;;;5033933;28;20032;-75
2023/06/10 07:59:44;;;;;;;8.55;4.78;;;;;;;;;;5034762;28;20044;-75
2023/06/10 08:02:10;;;;;;;5.63;3.85;;;;;;;;;;5034869;28;20056;-75
2023/06/10 08:04:36;;;;;;;6.45;4.45;;;;;;;;;;5034806;28;20021;-75
2023/06/10 08:07:03;;;;;;;6.82;4.20;;;;;;;;;;5034742;28;20346;-75
2023/06/10 08:09:29;;;;;;;6.90;4.05;;;;;;;;;;5034244;28;20060;-75
2023/06/10 08:11:55;;;;;;;6.47;4.13;;;;;;;;;;5034958;28;20025;-75
2023/06/10 08:14:21;;;;;;;5.60;4.43;;;;;;;;;;5034387;28;20025;-75
2023/06/10 08:16:47;;;;;;;6.03;3.85;;;;;;;;;;5033415;28;20551;-75
2023/06/10 08:19:13;;;;;;;6.85;4.50;;;;;;;;;;5033144;28;20061;-75
2023/06/10 08:21:39;;;;;;;7.18;4.75;;;;;;;;;;5035477;28;20092;-75
2023/06/10 08:24:09;;;;;;;8.07;4.35;;;;;;;;;;5035498;28;20033;-75
2023/06/10 08:26:35;;;;;;;7.03;4.30;;;;;;;;;;5038802;28;20653;-75
2023/06/10 08:29:01;;;;;;;6.82;4.45;;;;;;;;;;5038504;28;20041;-75
2023/06/10 08:31:27;;;;;;;6.80;4.47;;;;;;;;;;5036583;28;20045;-75
2023/06/10 08:33:53;;;;;;;7.68;4.20;;;;;;;;;;5036894;28;20031;-75
2023/06/10 08:36:19;;;;;;;7.40;4.10;;;;;;;;;;5037091;28;20494;-75
2023/06/10 08:38:45;;;;;;;6.30;4.20;;;;;;;;;;5038106;28;20029;-75
2023/06/10 08:41:13;;;;;;;7.22;4.45;;;;;;;;;;5037599;28;20101;-75
2023/06/10 08:43:44;;;;;;;5.53;4.30;;;;;;;;;;5037389;28;20053;-75
2023/06/10 08:46:11;;;;;;;6.30;4.30;;;;;;;;;;5036902;28;20104;-75
2023/06/10 08:48:40;;;;;;;8.07;4.15;;;;;;;;;;5036991;28;20380;-75
2023/06/10 08:51:06;;;;;;;6.65;4.30;;;;;;;;;;5037744;28;20056;-75
2023/06/10 08:53:34;;;;;;;6.38;4.30;;;;;;;;;;5036642;28;20075;-75
2023/06/10 08:56:01;;;;;;;6.73;4.60;;;;;;;;;;5036227;28;20072;-75
2023/06/10 08:58:27;;;;;;;6.00;4.80;;;;;;;;;;5036933;28;20032;-75
2023/06/10 09:00:53;;;;;;;6.93;4.40;;;;;;;;;;5036171;28;20029;-75
2023/06/10 09:03:20;;;;;;;7.65;4.70;;;;;;;;;;5036805;28;20022;-75
2023/06/10 09:05:46;;;;;;;6.03;4.10;;;;;;;;;;5036640;28;20029;-75
2023/06/10 09:08:12;;;;;;;6.75;5.20;;;;;;;;;;5036698;28;20381;-75
2023/06/10 09:10:38;;;;;;;6.28;4.47;;;;;;;;;;5035718;28;20026;-75
2023/06/10 09:13:04;;;;;;;6.03;4.38;;;;;;;;;;5036159;28;20101;-75
2023/06/10 09:15:30;;;;;;;60.22;11.93;;;;;;;;;;5034934;28;20087;-75
2023/06/10 09:17:56;;;;;;;5.15;3.92;;;;;;;;;;5036670;28;20488;-75
2023/06/10 09:20:24;;;;;;;7.20;4.68;;;;;;;;;;5035170;28;20022;-74
2023/06/10 09:22:50;;;;;;;10.48;5.13;;;;;;;;;;5036473;28;20463;-75
2023/06/10 09:25:16;;;;;;;4.78;4.18;;;;;;;;;;5037398;28;20021;-75
2023/06/10 09:27:49;;;;;;;5.72;4.32;;;;;;;;;;5037224;28;20112;-75
2023/06/10 09:30:27;;;;;;;5.32;3.80;;;;;;;;;;5034927;28;20053;-75
2023/06/10 09:32:58;;;;;;;4.60;3.33;;;;;;;;;;5036022;28;20021;-74
2023/06/10 09:35:24;;;;;;;6.03;4.30;;;;;;;;;;5042828;28;20029;-75
2023/06/10 09:37:52;;;;;;;7.10;3.92;;;;;;;;;;5042797;28;20030;-75
2023/06/10 09:40:18;;;;;;;6.43;3.92;;;;;;;;;;5040674;28;20025;-75
2023/06/10 09:42:44;;;;;;;4.97;3.90;;;;;;;;;;5043469;28;20025;-74
2023/06/10 09:45:10;;;;;;;8.15;4.07;;;;;;;;;;5043781;28;20056;-74
2023/06/10 09:47:36;;;;;;;6.65;3.67;;;;;;;;;;5043718;28;20029;-75
2023/06/10 09:50:03;;;;;;;4.80;3.60;;;;;;;;;;5043437;28;20048;-74
2023/06/10 09:52:29;;;;;;;4.28;3.88;;;;;;;;;;5042724;28;20025;-75
2023/06/10 09:55:02;;;;;;;4.85;3.30;;;;;;;;;;5041998;28;20033;-74
2023/06/10 09:57:39;;;;;;;4.05;3.22;;;;;;;;;;5042206;28;20040;-75
2023/06/10 10:00:08;;;;;;;6.25;3.42;;;;;;;;;;5041455;28;20021;-75
2023/06/10 10:02:45;;;;;;;5.63;3.25;;;;;;;;;;5040883;28;20072;-75
2023/06/10 10:05:13;;;;;;;4.78;3.30;;;;;;;;;;5040996;28;20110;-74
2023/06/10 10:07:39;;;;;;;6.65;3.78;;;;;;;;;;5040394;28;20136;-75
2023/06/10 10:10:06;;;;;;;4.57;3.55;;;;;;;;;;5039886;28;20029;-74
2023/06/10 10:12:32;;;;;;;5.38;2.75;;;;;;;;;;5040496;28;20453;-74
2023/06/10 10:14:58;;;;;;;7.10;3.58;;;;;;;;;;5039692;28;20032;-74
2023/06/10 10:17:25;;;;;;;5.07;3.60;;;;;;;;;;5039197;28;20040;-74
2023/06/10 10:19:53;;;;;;;5.13;3.80;;;;;;;;;;5039388;28;20610;-74
2023/06/10 10:22:24;;;;;;;5.33;3.67;;;;;;;;;;5037380;28;20101;-75
2023/06/10 10:24:52;;;;;;;4.65;3.47;;;;;;;;;;5044610;28;20029;-74
2023/06/10 10:27:18;;;;;;;4.20;3.50;;;;;;;;;;5043294;28;20120;-74
2023/06/10 10:29:48;;;;;;;3.80;3.33;;;;;;;;;;5040496;28;20124;-76
2023/06/10 10:32:16;;;;;;;6.47;3.50;;;;;;;;;;5040448;28;20029;-76
2023/06/10 10:34:51;;;;;;;4.18;3.45;;;;;;;;;;5040555;28;20562;-76
2023/06/10 10:37:18;;;;;;;3.65;3.00;;;;;;;;;;5040756;28;20025;-76
2023/06/10 10:39:45;;;;;;;3.85;3.08;;;;;;;;;;5040029;28;20032;-76
2023/06/10 10:42:11;;;;;;;4.05;3.20;;;;;;;;;;5040010;28;20040;-76
2023/06/10 10:44:40;;;;;;;4.57;3.47;;;;;;;;;;5040207;28;20067;-76
2023/06/10 10:47:09;;;;;;;4.28;2.78;;;;;;;;;;5039958;28;20029;-77
2023/06/10 10:49:36;;;;;;;3.38;3.00;;;;;;;;;;5041880;28;20037;-76
2023/06/10 10:52:05;;;;;;;5.43;3.00;;;;;;;;;;5042738;28;20024;-77
2023/06/10 10:54:40;;;;;;;5.68;3.20;;;;;;;;;;5041414;28;20022;-77
2023/06/10 10:57:19;;;;;;;5.53;2.63;;;;;;;;;;5040875;28;20648;-76
2023/06/10 10:59:45;;;;;;;5.05;3.33;;;;;;;;;;5040451;28;20080;-76
2023/06/10 11:02:11;;;;;;;4.13;3.40;;;;;;;;;;5036607;28;20034;-77
2023/06/10 11:04:37;;;;;;;4.10;3.05;;;;;;;;;;5037820;28;20065;-77
2023/06/10 11:07:07;;;;;;;5.05;3.22;;;;;;;;;;5040004;28;20025;-77
2023/06/10 11:09:33;;;;;;;4.38;3.20;;;;;;;;;;5039495;28;20137;-77
2023/06/10 11:11:59;;;;;;;4.70;3.25;;;;;;;;;;5038970;28;20057;-77
2023/06/10 11:14:29;;;;;;;4.07;3.05;;;;;;;;;;5037328;28;20032;-76
2023/06/10 11:16:59;;;;;;;3.72;2.95;;;;;;;;;;5041144;28;20029;-76
2023/06/10 11:19:35;;;;;;;3.50;2.65;;;;;;;;;;5040554;28;20083;-77
2023/06/10 11:22:02;;;;;;;4.63;3.30;;;;;;;;;;5042569;28;20041;-76
2023/06/10 11:24:29;;;;;;;5.25;2.95;;;;;;;;;;5041117;28;20030;-77
2023/06/10 11:26:55;;;;;;;4.18;3.05;;;;;;;;;;5039436;28;20037;-77
2023/06/10 11:29:21;;;;;;;3.78;3.10;;;;;;;;;;5038035;28;20029;-76
2023/06/10 11:31:51;;;;;;;5.07;3.10;;;;;;;;;;5033838;28;20108;-76
2023/06/10 11:34:24;;;;;;;17.27;5.28;;;;;;;;;;5034171;28;20055;-76
2023/06/10 11:36:51;;;;;;;10.02;4.78;;;;;;;;;;5034982;28;20353;-75
2023/06/10 11:39:18;;;;;;;28.27;6.78;;;;;;;;;;5033021;28;20095;-74
2023/06/10 11:41:44;;;;;;;6.50;3.22;;;;;;;;;;5034819;28;20026;-74
2023/06/10 11:44:13;;;;;;;8.68;4.28;;;;;;;;;;5036355;28;20108;-74
2023/06/10 11:46:39;;;;;;;18.95;5.78;;;;;;;;;;5035763;28;20025;-74
2023/06/10 11:49:06;;;;;;;5.20;3.50;;;;;;;;;;5036240;28;20041;-74
2023/06/10 11:51:36;;;;;;;5.13;2.42;;;;;;;;;;5037705;28;20039;-74
2023/06/10 11:54:02;;;;;;;2.88;2.47;;;;;;;;;;5036520;28;20067;-74
2023/06/10 11:56:35;;;;;;;3.53;3.22;;;;;;;;;;5032972;28;20407;-75
2023/06/10 11:59:06;;;;;;;3.55;2.85;;;;;;;;;;5036853;28;20029;-74
2023/06/10 12:01:33;;;;;;;3.20;2.35;;;;;;;;;;5040568;28;20033;-74
2023/06/10 12:03:59;;;;;;;3.50;2.58;;;;;;;;;;5039320;28;20017;-74
2023/06/10 12:06:25;;;;;;;4.30;2.78;;;;;;;;;;5036642;28;20091;-74
2023/06/10 12:08:51;;;;;;;3.67;3.00;;;;;;;;;;5036300;28;20488;-74
2023/06/10 12:11:18;;;;;;;3.75;2.90;;;;;;;;;;5035306;28;20036;-75
2023/06/10 12:13:50;;;;;;;3.65;2.38;;;;;;;;;;5036583;28;20087;-74
2023/06/10 12:16:17;;;;;;;3.58;2.40;;;;;;;;;;5036260;28;20018;-74
2023/06/10 12:18:47;;;;;;;3.58;2.70;;;;;;;;;;5036492;28;20022;-74
2023/06/10 12:21:24;;;;;;;9.15;3.25;;;;;;;;;;5037134;28;20104;-76
2023/06/10 12:24:04;;;;;;;10.68;4.07;;;;;;;;;;5037973;28;20123;-76
2023/06/10 12:26:47;;;;;;;11.60;3.65;;;;;;;;;;5038165;28;20022;-77
2023/06/10 12:29:16;;;;;;;2.28;2.00;;;;;;;;;;5037872;28;20040;-76
2023/06/10 12:31:55;;;;;;;4.07;2.80;;;;;;;;;;5037125;28;20380;-76
2023/06/10 12:34:22;;;;;;;;;;;;;;;;;;5038076;28;20026;-76
2023/06/10 12:36:49;;;;;;;4.65;2.70;;;;;;;;;;5038491;28;19992;-76
2023/06/10 12:39:16;;;;;;;4.75;2.45;;;;;;;;;;5038339;28;20044;-76
2023/06/10 12:41:48;;;;;;;4.70;2.97;;;;;;;;;;5036118;28;20021;-76
2023/06/10 12:44:14;;;;;;;3.65;2.22;;;;;;;;;;5038828;28;20026;-76
2023/06/10 12:46:40;;;;;;;5.40;2.55;;;;;;;;;;5038152;28;20027;-76
2023/06/10 12:49:06;;;;;;;3.65;2.50;;;;;;;;;;5037782;28;20029;-76
2023/06/10 12:51:34;;;;;;;4.25;2.33;;;;;;;;;;5038134;28;20029;-76
2023/06/10 12:54:00;;;;;;;3.58;2.17;;;;;;;;;;5038195;28;20018;-76
2023/06/10 12:56:26;;;;;;;4.90;2.30;;;;;;;;;;5037593;28;20032;-76
2023/06/10 12:58:52;;;;;;;3.63;2.70;;;;;;;;;;5035795;28;20053;-76
2023/06/10 13:01:18;;;;;;;7.03;4.25;;;;;;;;;;5037086;28;20025;-76
2023/06/10 13:03:44;;;;;;;8.43;4.72;;;;;;;;;;5036029;28;20030;-76
2023/06/10 13:06:10;;;;;;;8.35;4.63;;;;;;;;;;5035920;28;20028;-76
2023/06/10 13:08:36;;;;;;;9.48;4.05;;;;;;;;;;5035840;28;20033;-76
2023/06/10 13:11:02;;;;;;;6.70;3.63;;;;;;;;;;5033955;28;20503;-76
2023/06/10 13:13:28;;;;;;;5.72;4.10;;;;;;;;;;5034952;28;20032;-76
2023/06/10 13:15:54;;;;;;;7.38;4.40;;;;;;;;;;5036423;28;20025;-76
2023/06/10 13:18:20;;;;;;;6.40;4.50;;;;;;;;;;5036333;28;20216;-76
2023/06/10 13:20:46;;;;;;;8.70;5.55;;;;;;;;;;5036609;28;20029;-76
2023/06/10 13:23:13;;;;;;;9.88;4.05;;;;;;;;;;5037358;28;20014;-76
2023/06/10 13:25:40;;;;;;;10.07;5.68;;;;;;;;;;5037934;28;20060;-76
2023/06/10 13:28:07;;;;;;;9.52;4.47;;;;;;;;;;5037278;28;20037;-76
2023/06/10 13:30:33;;;;;;;11.68;5.70;;;;;;;;;;5034174;28;20057;-76
2023/06/10 13:32:59;;;;;;;6.38;4.93;;;;;;;;;;5035733;28;20457;-76
2023/06/10 13:35:25;;;;;;;10.82;5.10;;;;;;;;;;5035117;28;20079;-76
2023/06/10 13:37:51;;;;;;;9.90;4.57;;;;;;;;;;5035809;28;20022;-76
2023/06/10 13:40:19;;;;;;;8.52;5.28;;;;;;;;;;5035552;28;20472;-76
2023/06/10 13:42:50;;;;;;;12.57;5.07;;;;;;;;;;5035962;28;20021;-76
2023/06/10 13:45:16;;;;;;;7.45;4.90;;;;;;;;;;5035739;28;20026;-76
2023/06/10 13:47:42;;;;;;;8.90;4.70;;;;;;;;;;5035686;28;20032;-76
2023/06/10 13:50:09;;;;;;;9.45;5.40;;;;;;;;;;5035780;28;20041;-76
2023/06/10 13:52:35;;;;;;;10.73;5.25;;;;;;;;;;5035908;28;20049;-76
2023/06/10 13:55:01;;;;;;;7.63;5.40;;;;;;;;;;5035993;28;20649;-76
2023/06/10 13:57:27;;;;;;;9.55;5.20;;;;;;;;;;5034930;28;20036;-76
2023/06/10 13:59:53;;;;;;;7.25;4.13;;;;;;;;;;5034564;28;20080;-76
2023/06/10 14:02:19;;;;;;;12.35;5.93;;;;;;;;;;5034694;28;20444;-76
2023/06/10 14:04:45;;;;;;;8.75;4.75;;;;;;;;;;5033794;28;20037;-76
2023/06/10 14:07:11;;;;;;;7.28;5.00;;;;;;;;;;5034117;28;20025;-76
2023/06/10 14:09:37;;;;;;;10.30;5.45;;;;;;;;;;5034930;28;20036;-76
2023/06/10 14:12:03;;;;;;;6.97;5.30;;;;;;;;;;5034522;28;20075;-76
2023/06/10 14:14:30;;;;;;;9.05;4.95;;;;;;;;;;5034594;28;20029;-76
2023/06/10 14:16:56;;;;;;;9.73;4.63;;;;;;;;;;5035102;28;20032;-76
2023/06/10 14:19:22;;;;;;;6.45;4.28;;;;;;;;;;5034838;28;20376;-76
2023/06/10 14:21:49;;;;;;;9.95;4.55;;;;;;;;;;5034517;28;20029;-76
2023/06/10 14:24:15;;;;;;;10.63;5.35;;;;;;;;;;5035610;28;20036;-76
2023/06/10 14:26:41;;;;;;;7.25;4.57;;;;;;;;;;5034817;28;20021;-76
2023/06/10 14:29:08;;;;;;;7.63;4.32;;;;;;;;;;5034584;28;20041;-76
2023/06/10 14:31:34;;;;;;;8.45;4.22;;;;;;;;;;5033259;28;20053;-76
2023/06/10 14:34:00;;;;;;;8.10;4.63;;;;;;;;;;5034337;28;20025;-76
2023/06/10 14:36:26;;;;;;;11.40;4.47;;;;;;;;;;5034400;28;20095;-76